createdAt,value
2022-09-10T00:03:32.896Z,11.57
2022-09-10T00:06:02.958Z,12.88
2022-09-10T00:08:31.303Z,12.73
2022-09-10T00:10:58.348Z,8.20
2022-09-10T00:13:25.296Z,11.00
2022-09-10T00:15:53.905Z,11.45
2022-09-10T00:18:22.882Z,10.75
2022-09-10T00:20:52.858Z,13.23
2022-09-10T00:23:23.944Z,11.02
2022-09-10T00:25:53.773Z,9.27
2022-09-10T00:28:22.038Z,10.70
2022-09-10T00:30:51.291Z,12.50
2022-09-10T00:33:20.752Z,9.00
2022-09-10T00:35:49.562Z,9.82
2022-09-10T00:38:19.751Z,9.57
2022-09-10T00:40:46.979Z,9.70
2022-09-10T00:43:20.670Z,8.13
2022-09-10T00:45:54.908Z,15.73
2022-09-10T00:48:32.512Z,7.07
2022-09-10T00:51:05.154Z,13.35
2022-09-10T00:53:32.811Z,11.40
2022-09-10T00:56:01.144Z,16.20
2022-09-10T00:58:29.244Z,13.80
2022-09-10T01:01:00.506Z,18.65
2022-09-10T01:03:30.254Z,15.95
2022-09-10T01:05:57.842Z,13.85
2022-09-10T01:08:25.083Z,13.90
2022-09-10T01:11:07.865Z,14.98
2022-09-10T01:13:37.315Z,12.02
2022-09-10T01:16:13.010Z,18.30
2022-09-10T01:18:59.852Z,14.80
2022-09-10T01:21:47.074Z,11.38
2022-09-10T01:24:42.550Z,8.05
2022-09-10T01:27:24.403Z,12.13
2022-09-10T01:30:07.682Z,10.80
2022-09-10T01:32:59.844Z,10.93
2022-09-10T01:35:37.603Z,11.77
2022-09-10T01:38:12.061Z,11.60
2022-09-10T01:40:39.322Z,9.25
2022-09-10T01:43:09.882Z,15.68
2022-09-10T01:45:54.823Z,12.10
2022-09-10T01:49:00.804Z,10.77
2022-09-10T01:51:49.238Z,11.32
2022-09-10T01:54:56.679Z,10.18
2022-09-10T01:57:42.111Z,12.80
2022-09-10T02:00:15.291Z,12.95
2022-09-10T02:03:23.703Z,11.50
2022-09-10T02:05:54.154Z,9.45
2022-09-10T02:08:37.962Z,11.73
2022-09-10T02:11:06.911Z,13.60
2022-09-10T02:13:35.584Z,12.73
2022-09-10T02:16:06.426Z,12.60
2022-09-10T02:18:34.296Z,10.50
2022-09-10T02:21:03.314Z,14.80
2022-09-10T02:23:36.162Z,13.57
2022-09-10T02:26:03.579Z,8.50
2022-09-10T02:28:30.600Z,9.30
2022-09-10T02:30:57.573Z,16.98
2022-09-10T02:33:24.573Z,18.67
2022-09-10T02:35:52.229Z,11.88
2022-09-10T02:38:19.285Z,7.85
2022-09-10T02:40:49.461Z,13.00
2022-09-10T02:43:17.587Z,17.77
2022-09-10T02:45:44.828Z,9.63
2022-09-10T02:48:12.172Z,9.88
2022-09-10T02:50:39.265Z,17.10
2022-09-10T02:53:07.164Z,12.68
2022-09-10T02:55:34.122Z,8.50
2022-09-10T02:58:01.071Z,9.43
2022-09-10T03:00:28.062Z,7.07
2022-09-10T03:03:00.857Z,9.82
2022-09-10T03:05:29.402Z,9.32
2022-09-10T03:07:57.293Z,6.28
2022-09-10T03:10:24.647Z,13.93
2022-09-10T03:12:52.261Z,10.80
2022-09-10T03:15:20.782Z,13.07
2022-09-10T03:17:47.734Z,12.00
2022-09-10T03:20:14.985Z,12.10
2022-09-10T03:22:41.882Z,12.63
2022-09-10T03:25:08.944Z,12.57
2022-09-10T03:27:36.392Z,11.43
2022-09-10T03:30:03.422Z,9.35
2022-09-10T03:32:32.254Z,8.32
2022-09-10T03:35:00.220Z,11.65
2022-09-10T03:37:27.231Z,13.63
2022-09-10T03:39:54.051Z,13.05
2022-09-10T03:42:21.138Z,10.32
2022-09-10T03:44:47.943Z,13.40
2022-09-10T03:47:14.855Z,10.95
2022-09-10T03:49:41.704Z,10.95
2022-09-10T03:52:12.765Z,10.57
2022-09-10T03:54:40.198Z,7.78
2022-09-10T03:57:07.234Z,9.43
2022-09-10T03:59:35.150Z,12.68
2022-09-10T04:02:03.070Z,6.47
2022-09-10T04:04:31.680Z,8.13
2022-09-10T04:06:58.870Z,9.75
2022-09-10T04:09:25.785Z,7.57
2022-09-10T04:11:52.771Z,10.57
2022-09-10T04:14:19.870Z,12.18
2022-09-10T04:16:46.892Z,8.63
2022-09-10T04:19:13.915Z,9.48
2022-09-10T04:21:41.171Z,9.98
2022-09-10T04:24:11.150Z,8.00
2022-09-10T04:26:38.274Z,10.32
2022-09-10T04:29:05.390Z,7.38
2022-09-10T04:31:32.440Z,8.45
2022-09-10T04:34:02.179Z,14.18
2022-09-10T04:36:29.376Z,9.40
2022-09-10T04:38:56.423Z,16.88
2022-09-10T04:41:23.382Z,12.38
2022-09-10T04:43:50.381Z,9.27
2022-09-10T04:46:17.865Z,7.13
2022-09-10T04:48:44.782Z,13.57
2022-09-10T04:51:17.475Z,13.43
2022-09-10T04:53:45.941Z,12.05
2022-09-10T04:56:13.262Z,10.23
2022-09-10T04:58:41.479Z,12.70
2022-09-10T05:01:09.167Z,8.55
2022-09-10T05:03:36.492Z,10.57
2022-09-10T05:06:05.157Z,22.98
2022-09-10T05:08:32.466Z,13.80
2022-09-10T05:11:01.341Z,13.68
2022-09-10T05:13:31.204Z,11.18
2022-09-10T05:16:01.292Z,9.15
2022-09-10T05:18:28.372Z,8.75
2022-09-10T05:20:55.321Z,9.98
2022-09-10T05:23:22.282Z,8.48
2022-09-10T05:25:49.763Z,9.80
2022-09-10T05:28:16.722Z,28.13
2022-09-10T05:30:49.525Z,56.33
2022-09-10T05:33:18.415Z,45.78
2022-09-10T05:36:05.331Z,33.63
2022-09-10T05:38:34.502Z,15.63
2022-09-10T05:41:04.143Z,16.77
2022-09-10T05:43:31.103Z,12.85
2022-09-10T05:45:58.105Z,17.52
2022-09-10T05:48:25.051Z,16.02
2022-09-10T05:50:52.625Z,13.05
2022-09-10T05:53:19.583Z,11.63
2022-09-10T05:55:46.511Z,9.27
2022-09-10T05:58:13.834Z,10.88
2022-09-10T06:00:43.272Z,10.40
2022-09-10T06:03:10.823Z,12.55
2022-09-10T06:05:37.794Z,10.02
2022-09-10T06:08:08.593Z,18.20
2022-09-10T06:10:36.159Z,12.88
2022-09-10T06:13:03.063Z,13.18
2022-09-10T06:15:33.316Z,12.43
2022-09-10T06:18:01.955Z,12.52
2022-09-10T06:20:28.920Z,13.98
2022-09-10T06:22:55.851Z,13.30
2022-09-10T06:25:22.818Z,8.65
2022-09-10T06:27:49.830Z,17.35
2022-09-10T06:30:16.985Z,8.25
2022-09-10T06:32:43.836Z,12.93
2022-09-10T06:35:10.783Z,11.00
2022-09-10T06:37:37.796Z,8.55
2022-09-10T06:40:05.462Z,11.23
2022-09-10T06:42:33.316Z,14.50
2022-09-10T06:45:00.594Z,11.00
2022-09-10T06:52:41.110Z,8.85
2022-09-10T06:55:08.395Z,13.30
2022-09-10T06:57:35.265Z,8.27
2022-09-10T07:00:02.351Z,11.90
2022-09-10T07:02:30.399Z,11.25
2022-09-10T07:04:57.196Z,18.88
2022-09-10T07:07:24.452Z,11.40
2022-09-10T07:09:51.305Z,9.77
2022-09-10T07:12:18.190Z,14.50
2022-09-10T07:14:45.099Z,11.35
2022-09-10T07:17:11.932Z,11.35
2022-09-10T07:19:38.897Z,7.78
2022-09-10T07:22:05.703Z,7.63
2022-09-10T07:24:32.684Z,19.45
2022-09-10T07:27:00.403Z,11.00
2022-09-10T07:29:45.983Z,12.30
2022-09-10T07:32:13.780Z,11.70
2022-09-10T07:34:41.352Z,13.35
2022-09-10T07:37:08.137Z,12.82
2022-09-10T07:39:35.099Z,15.50
2022-09-10T07:42:02.110Z,15.27
2022-09-10T07:44:29.176Z,14.40
2022-09-10T07:46:56.119Z,10.82
2022-09-10T07:49:23.300Z,15.48
2022-09-10T07:51:57.720Z,16.30
2022-09-10T07:56:56.154Z,20.73
2022-09-10T07:59:23.042Z,21.63
2022-09-10T08:01:50.885Z,23.20
2022-09-10T08:04:18.301Z,32.00
2022-09-10T08:06:45.373Z,25.85
2022-09-10T08:09:15.037Z,35.00
2022-09-10T08:11:41.941Z,36.63
2022-09-10T08:14:09.631Z,49.97
2022-09-10T08:16:37.834Z,47.90
2022-09-10T08:19:06.228Z,48.72
2022-09-10T08:21:33.370Z,39.47
2022-09-10T08:24:00.383Z,41.55
2022-09-10T08:26:27.683Z,39.13
2022-09-10T08:28:56.630Z,35.58
2022-09-10T08:31:25.216Z,31.60
2022-09-10T08:33:57.033Z,31.75
2022-09-10T08:36:24.727Z,32.78
2022-09-10T08:38:55.147Z,31.70
2022-09-10T08:41:34.090Z,31.60
2022-09-10T08:44:08.251Z,30.15
2022-09-10T08:46:50.087Z,34.03
2022-09-10T08:49:26.318Z,32.67
2022-09-10T08:51:57.271Z,26.48
2022-09-10T08:54:30.079Z,26.88
2022-09-10T08:57:00.742Z,24.85
2022-09-10T08:59:44.012Z,23.20
2022-09-10T09:02:47.982Z,21.40
2022-09-10T09:05:22.966Z,20.67
2022-09-10T09:07:52.336Z,19.65
2022-09-10T09:10:23.062Z,24.30
2022-09-10T09:13:04.675Z,19.05
2022-09-10T09:15:31.685Z,17.85
2022-09-10T09:18:30.926Z,13.02
2022-09-10T09:21:04.099Z,15.13
2022-09-10T09:24:02.750Z,14.27
2022-09-10T09:26:35.897Z,17.23
2022-09-10T09:29:10.726Z,23.20
2022-09-10T09:31:42.833Z,18.38
2022-09-10T09:34:34.282Z,13.65
2022-09-10T09:37:05.604Z,14.25
2022-09-10T09:39:43.354Z,14.55
2022-09-10T09:42:29.401Z,18.95
2022-09-10T09:45:08.291Z,17.43
2022-09-10T09:47:35.192Z,15.93
2022-09-10T09:50:02.171Z,24.90
2022-09-10T09:52:31.975Z,21.98
2022-09-10T09:55:27.462Z,23.58
2022-09-10T09:58:24.307Z,21.60
2022-09-10T10:01:07.124Z,19.90
2022-09-10T10:03:50.543Z,21.02
2022-09-10T10:06:23.057Z,21.08
2022-09-10T10:09:04.766Z,18.05
2022-09-10T10:11:42.822Z,17.75
2022-09-10T10:14:20.704Z,16.60
2022-09-10T10:17:00.377Z,15.55
2022-09-10T10:19:36.826Z,13.77
2022-09-10T10:24:52.731Z,20.30
2022-09-10T10:27:33.080Z,16.20
2022-09-10T10:30:16.909Z,14.75
2022-09-10T10:32:48.170Z,15.77
2022-09-10T10:35:36.166Z,14.05
2022-09-10T10:38:16.906Z,16.00
2022-09-10T10:41:08.316Z,19.17
2022-09-10T10:43:47.740Z,13.93
2022-09-10T10:46:14.757Z,16.10
2022-09-10T10:48:44.879Z,14.48
2022-09-10T10:51:39.866Z,16.15
2022-09-10T10:54:15.954Z,14.88
2022-09-10T10:56:56.458Z,19.02
2022-09-10T10:59:51.389Z,16.02
2022-09-10T11:02:33.587Z,15.05
2022-09-10T11:05:07.796Z,15.70
2022-09-10T11:07:39.726Z,14.57
2022-09-10T11:10:15.390Z,15.02
2022-09-10T11:13:06.540Z,14.95
2022-09-10T11:15:53.752Z,14.73
2022-09-10T11:18:27.428Z,18.63
2022-09-10T11:21:09.969Z,16.92
2022-09-10T11:24:00.194Z,20.05
2022-09-10T11:26:51.570Z,16.15
2022-09-10T11:29:42.750Z,18.00
2022-09-10T11:32:41.677Z,22.77
2022-09-10T11:35:28.976Z,20.08
2022-09-10T11:38:13.212Z,20.30
2022-09-10T11:41:05.757Z,20.15
2022-09-10T11:43:56.523Z,24.40
2022-09-10T11:46:48.806Z,21.17
2022-09-10T11:49:23.106Z,22.73
2022-09-10T11:51:50.754Z,15.10
2022-09-10T11:54:34.519Z,14.55
2022-09-10T11:57:35.304Z,16.15
2022-09-10T12:00:17.859Z,17.40
2022-09-10T12:03:17.193Z,18.40
2022-09-10T12:05:58.970Z,15.75
2022-09-10T12:08:38.536Z,14.77
2022-09-10T12:11:29.709Z,15.93
2022-09-10T12:13:57.671Z,19.02
2022-09-10T12:16:37.947Z,17.63
2022-09-10T12:19:15.072Z,16.75
2022-09-10T12:21:50.188Z,19.73
2022-09-10T12:24:38.106Z,17.35
2022-09-10T12:27:06.869Z,22.92
2022-09-10T12:29:40.344Z,21.15
2022-09-10T12:32:10.064Z,18.90
2022-09-10T12:34:37.696Z,14.52
2022-09-10T12:37:04.548Z,23.08
2022-09-10T12:39:31.996Z,19.63
2022-09-10T12:42:01.431Z,13.90
2022-09-10T12:44:43.616Z,15.73
2022-09-10T12:47:40.632Z,13.75
2022-09-10T12:50:20.859Z,12.70
2022-09-10T12:53:20.850Z,14.07
2022-09-10T12:56:27.011Z,16.90
2022-09-10T12:59:14.459Z,16.80
2022-09-10T13:01:52.283Z,13.98
2022-09-10T13:04:24.477Z,13.82
2022-09-10T13:06:54.538Z,12.15
2022-09-10T13:09:25.798Z,10.75
2022-09-10T13:11:57.513Z,10.82
2022-09-10T13:14:38.341Z,21.70
2022-09-10T13:17:05.962Z,13.10
2022-09-10T13:19:32.998Z,6.65
2022-09-10T13:22:00.028Z,12.80
2022-09-10T13:24:38.538Z,8.02
2022-09-10T13:27:39.151Z,11.55
2022-09-10T13:30:23.471Z,8.52
2022-09-10T13:32:58.246Z,8.73
2022-09-10T13:35:44.557Z,8.82
2022-09-10T13:38:48.147Z,12.80
2022-09-10T13:41:33.331Z,6.88
2022-09-10T13:44:47.338Z,8.30
2022-09-10T13:47:37.747Z,8.52
2022-09-10T13:50:14.461Z,7.60
2022-09-10T13:52:46.342Z,7.47
2022-09-10T13:55:19.835Z,5.97
2022-09-10T13:57:50.372Z,6.07
2022-09-10T14:00:23.616Z,13.20
2022-09-10T14:02:54.515Z,8.25
2022-09-10T14:05:31.812Z,9.80
2022-09-10T14:08:01.930Z,7.75
2022-09-10T14:10:29.274Z,9.60
2022-09-10T14:12:58.156Z,9.25
2022-09-10T14:15:32.026Z,10.60
2022-09-10T14:18:00.198Z,7.60
2022-09-10T14:20:30.190Z,8.85
2022-09-10T14:23:12.658Z,11.60
2022-09-10T14:25:41.928Z,5.95
2022-09-10T14:28:27.776Z,10.63
2022-09-10T14:31:23.330Z,11.85
2022-09-10T14:33:50.380Z,4.65
2022-09-10T14:36:29.510Z,10.77
2022-09-10T14:39:19.932Z,10.02
2022-09-10T14:41:48.186Z,9.05
2022-09-10T14:44:24.081Z,7.72
2022-09-10T14:46:59.897Z,8.65
2022-09-10T14:49:29.846Z,13.30
2022-09-10T14:52:01.771Z,8.55
2022-09-10T14:54:30.320Z,6.97
2022-09-10T14:56:58.897Z,7.53
2022-09-10T14:59:32.331Z,10.85
2022-09-10T15:02:01.622Z,4.05
2022-09-10T15:04:30.300Z,15.88
2022-09-10T15:07:00.911Z,7.88
2022-09-10T15:09:29.202Z,4.00
2022-09-10T15:12:05.268Z,4.25
2022-09-10T15:14:33.772Z,6.85
2022-09-10T15:17:00.880Z,6.68
2022-09-10T15:19:28.133Z,4.63
2022-09-10T15:21:56.494Z,6.63
2022-09-10T15:24:24.416Z,3.40
2022-09-10T15:26:52.652Z,4.57
2022-09-10T15:29:19.874Z,9.25
2022-09-10T15:31:47.264Z,5.63
2022-09-10T15:34:14.575Z,4.43
2022-09-10T15:36:41.819Z,3.97
2022-09-10T15:39:12.179Z,4.35
2022-09-10T15:41:44.427Z,10.32
2022-09-10T15:44:12.462Z,2.67
2022-09-10T15:46:42.382Z,8.88
2022-09-10T15:49:09.447Z,6.00
2022-09-10T15:51:36.643Z,4.72
2022-09-10T15:54:05.264Z,4.38
2022-09-10T15:56:32.906Z,3.95
2022-09-10T15:58:59.996Z,5.22
2022-09-10T16:01:31.147Z,5.57
2022-09-10T16:04:02.924Z,8.88
2022-09-10T16:06:33.802Z,5.65
2022-09-10T16:09:03.830Z,6.80
2022-09-10T16:11:33.493Z,6.15
2022-09-10T16:14:19.170Z,4.22
2022-09-10T16:16:46.158Z,9.15
2022-09-10T16:19:13.518Z,9.93
2022-09-10T16:21:40.743Z,10.57
2022-09-10T16:24:08.130Z,7.40
2022-09-10T16:26:38.331Z,14.02
2022-09-10T16:29:08.051Z,8.02
2022-09-10T16:31:36.934Z,8.10
2022-09-10T16:34:06.333Z,9.13
2022-09-10T16:36:37.064Z,8.88
2022-09-10T16:39:07.474Z,12.18
2022-09-10T16:41:34.372Z,7.18
2022-09-10T16:44:01.498Z,7.13
2022-09-10T16:46:28.792Z,7.45
2022-09-10T16:48:57.264Z,10.25
2022-09-10T16:51:27.837Z,6.97
2022-09-10T16:53:57.394Z,7.45
2022-09-10T16:56:25.383Z,9.13
2022-09-10T16:58:52.691Z,5.90
2022-09-10T17:01:20.979Z,6.03
2022-09-10T17:03:55.206Z,6.95
2022-09-10T17:06:27.915Z,8.07
2022-09-10T17:08:57.782Z,9.52
2022-09-10T17:11:27.383Z,8.00
2022-09-10T17:13:57.108Z,8.90
2022-09-10T17:16:37.692Z,10.32
2022-09-10T17:19:11.154Z,12.88
2022-09-10T17:21:40.171Z,18.33
2022-09-10T17:24:10.231Z,16.05
2022-09-10T17:26:39.136Z,12.77
2022-09-10T17:29:12.869Z,14.07
2022-09-10T17:31:39.943Z,12.13
2022-09-10T17:34:08.153Z,11.18
2022-09-10T17:36:35.252Z,12.27
2022-09-10T17:39:02.246Z,12.52
2022-09-10T17:41:30.181Z,10.57
2022-09-10T17:43:59.558Z,13.48
2022-09-10T17:46:27.500Z,10.60
2022-09-10T17:48:54.798Z,15.68
2022-09-10T17:51:24.566Z,10.45
2022-09-10T17:53:54.069Z,11.63
2022-09-10T17:56:22.350Z,13.70
2022-09-10T17:58:49.712Z,12.23
2022-09-10T18:01:25.148Z,10.07
2022-09-10T18:03:53.294Z,12.25
2022-09-10T18:06:25.344Z,15.57
2022-09-10T18:08:53.004Z,13.50
2022-09-10T18:11:24.291Z,12.82
2022-09-10T18:13:53.258Z,9.85
2022-09-10T18:16:23.925Z,14.82
2022-09-10T18:19:13.013Z,13.32
2022-09-10T18:21:40.996Z,13.45
2022-09-10T18:24:15.425Z,14.48
2022-09-10T18:26:44.496Z,9.18
2022-09-10T18:29:14.346Z,11.25
2022-09-10T18:31:45.516Z,10.70
2022-09-10T18:34:18.510Z,9.93
2022-09-10T18:36:50.188Z,6.82
2022-09-10T18:39:17.309Z,8.82
2022-09-10T18:41:44.330Z,9.68
2022-09-10T18:44:16.663Z,14.13
2022-09-10T18:46:45.716Z,9.98
2022-09-10T18:49:19.035Z,14.48
2022-09-10T18:51:47.896Z,17.75
2022-09-10T18:54:16.532Z,8.15
2022-09-10T18:56:45.127Z,11.30
2022-09-10T18:59:15.384Z,10.18
2022-09-10T19:01:45.760Z,7.00
2022-09-10T19:04:16.058Z,11.65
2022-09-10T19:06:46.957Z,11.23
2022-09-10T19:09:19.680Z,9.95
2022-09-10T19:11:49.067Z,8.35
2022-09-10T19:14:23.817Z,7.90
2022-09-10T19:16:51.350Z,10.50
2022-09-10T19:19:24.469Z,13.55
2022-09-10T19:21:53.780Z,11.25
2022-09-10T19:24:32.806Z,13.05
2022-09-10T19:27:08.039Z,8.55
2022-09-10T19:29:35.352Z,9.30
2022-09-10T19:32:02.679Z,7.82
2022-09-10T19:34:31.167Z,10.98
2022-09-10T19:36:58.077Z,13.48
2022-09-10T19:39:25.027Z,11.52
2022-09-10T19:41:52.459Z,14.60
2022-09-10T19:44:20.287Z,10.85
2022-09-10T19:46:47.223Z,7.72
2022-09-10T19:49:34.371Z,17.85
2022-09-10T19:52:01.868Z,16.30
2022-09-10T19:54:30.486Z,10.02
2022-09-10T19:56:57.429Z,9.65
2022-09-10T19:59:24.482Z,10.07
2022-09-10T20:01:51.653Z,10.77
2022-09-10T20:04:18.681Z,6.53
2022-09-10T20:06:47.758Z,9.60
2022-09-10T20:09:14.813Z,9.25
2022-09-10T20:11:41.886Z,9.63
2022-09-10T20:14:12.301Z,14.02
2022-09-10T20:16:42.656Z,31.52
2022-09-10T20:19:11.625Z,12.70
2022-09-10T20:21:57.431Z,11.05
2022-09-10T20:24:24.619Z,9.55
2022-09-10T20:26:51.872Z,6.85
2022-09-10T20:29:19.451Z,7.05
2022-09-10T20:31:47.711Z,8.93
2022-09-10T20:34:19.942Z,10.55
2022-09-10T20:36:48.357Z,7.75
2022-09-10T20:39:17.858Z,8.60
2022-09-10T20:41:45.670Z,7.18
2022-09-10T20:44:15.577Z,7.13
2022-09-10T20:46:42.870Z,8.68
2022-09-10T20:49:14.244Z,11.85
2022-09-10T20:51:41.559Z,8.05
2022-09-10T20:54:12.252Z,8.82
2022-09-10T20:56:40.638Z,9.43
2022-09-10T20:59:07.735Z,6.57
2022-09-10T21:01:35.305Z,6.93
2022-09-10T21:04:03.207Z,13.70
2022-09-10T21:06:32.481Z,7.75
2022-09-10T21:09:00.629Z,9.88
2022-09-10T21:11:29.842Z,7.18
2022-09-10T21:13:58.850Z,6.32
2022-09-10T21:16:28.301Z,7.90
2022-09-10T21:18:57.705Z,10.88
2022-09-10T21:21:27.120Z,8.50
2022-09-10T21:24:06.569Z,8.63
2022-09-10T21:26:35.807Z,7.35
2022-09-10T21:29:05.649Z,11.82
2022-09-10T21:31:32.676Z,8.43
2022-09-10T21:34:03.255Z,6.47
2022-09-10T21:36:32.152Z,10.10
2022-09-10T21:39:01.162Z,8.60
2022-09-10T21:41:46.511Z,14.60
2022-09-10T21:44:19.965Z,6.57
2022-09-10T21:46:48.279Z,5.32
2022-09-10T21:49:15.792Z,10.23
2022-09-10T21:51:43.121Z,7.75
2022-09-10T21:54:19.126Z,6.30
2022-09-10T21:56:46.511Z,7.32
2022-09-10T21:59:14.770Z,7.85
2022-09-10T22:01:44.189Z,8.25
2022-09-10T22:04:12.578Z,9.60
2022-09-10T22:06:39.551Z,7.90
2022-09-10T22:09:14.308Z,6.63
2022-09-10T22:11:47.018Z,7.82
2022-09-10T22:14:19.073Z,7.15
2022-09-10T22:16:46.192Z,6.32
2022-09-10T22:19:15.711Z,6.68
2022-09-10T22:21:42.691Z,5.85
2022-09-10T22:24:11.801Z,7.30
2022-09-10T22:26:44.592Z,7.40
2022-09-10T22:29:12.857Z,5.55
2022-09-10T22:31:39.934Z,8.80
2022-09-10T22:34:11.285Z,6.53
2022-09-10T22:36:40.300Z,6.78
2022-09-10T22:39:14.594Z,8.10
2022-09-10T22:41:44.622Z,7.38
2022-09-10T22:44:12.452Z,7.45
2022-09-10T22:46:40.379Z,12.40
2022-09-10T22:49:07.972Z,5.20
2022-09-10T22:51:38.471Z,11.10
2022-09-10T22:54:06.711Z,12.90
2022-09-10T22:56:35.973Z,8.45
2022-09-10T22:59:04.544Z,10.38
2022-09-10T23:01:35.637Z,7.40
2022-09-10T23:04:04.603Z,12.15
2022-09-10T23:06:33.611Z,10.05
2022-09-10T23:09:18.651Z,7.75
2022-09-10T23:11:46.033Z,6.55
2022-09-10T23:14:17.936Z,11.35
2022-09-10T23:16:51.992Z,7.85
2022-09-10T23:19:28.055Z,7.95
2022-09-10T23:21:55.498Z,7.28
2022-09-10T23:24:24.731Z,7.25
2022-09-10T23:26:52.242Z,8.77
2022-09-10T23:29:20.171Z,5.47
2022-09-10T23:31:48.032Z,9.80
2022-09-10T23:34:33.702Z,10.85
2022-09-10T23:37:00.671Z,9.13
2022-09-10T23:39:27.574Z,6.25
2022-09-10T23:41:57.204Z,6.45
2022-09-10T23:44:26.034Z,7.22
2022-09-10T23:46:53.632Z,6.68
2022-09-10T23:49:20.715Z,9.88
2022-09-10T23:51:49.164Z,9.93
2022-09-10T23:54:16.291Z,8.45
2022-09-10T23:56:43.971Z,9.80
2022-09-10T23:59:11.861Z,11.73
